Time;durP1;ratioP1;P1;durP2;ratioP2;P2;SDS_P1;SDS_P2;PMS_P1;PMS_P2;Temp;Humidity;BMP_temperature;BMP_pressure;BME280_temperature;BME280_humidity;BME280_pressure;Samples;Min_cycle;Max_cycle;Signal;HPM_P1;HPM_P2
2022/04/28 00:01:59;;;;;;;6.10;5.03;;;8.70;99.90;;;;;;5047206;28;20455;-73
2022/04/28 00:04:44;;;;;;;5.70;4.87;;;8.70;99.90;;;;;;5045129;28;20484;-73
2022/04/28 00:07:30;;;;;;;9.43;5.13;;;8.50;99.90;;;;;;5047855;28;20419;-73
2022/04/28 00:10:16;;;;;;;6.33;5.20;;;8.50;99.90;;;;;;5049006;28;21082;-72
2022/04/28 00:13:02;;;;;;;6.27;4.83;;;8.50;99.90;;;;;;5044876;28;20412;-73
2022/04/28 00:15:49;;;;;;;9.07;5.23;;;8.40;99.90;;;;;;5051787;28;20986;-73
2022/04/28 00:18:35;;;;;;;8.30;5.80;;;8.50;99.90;;;;;;5048621;28;20839;-73
2022/04/28 00:21:21;;;;;;;5.73;4.70;;;8.40;99.90;;;;;;5043755;28;20460;-73
2022/04/28 00:24:07;;;;;;;6.30;5.30;;;8.40;99.90;;;;;;5049541;28;20458;-73
2022/04/28 00:26:53;;;;;;;7.33;4.87;;;8.30;99.90;;;;;;5053037;28;20420;-73
2022/04/28 00:29:39;;;;;;;6.47;5.20;;;8.30;99.90;;;;;;5051072;28;20462;-73
2022/04/28 00:32:26;;;;;;;6.67;6.00;;;8.30;99.90;;;;;;5051679;28;20450;-73
2022/04/28 00:35:11;;;;;;;8.17;5.43;;;8.20;99.90;;;;;;5049653;28;20506;-73
2022/04/28 00:37:57;;;;;;;6.53;4.63;;;8.20;99.90;;;;;;5052624;28;20555;-73
2022/04/28 00:40:43;;;;;;;7.93;6.13;;;8.20;99.90;;;;;;5049376;28;20452;-73
2022/04/28 00:43:30;;;;;;;7.10;5.20;;;8.20;99.90;;;;;;5047496;28;20424;-73
2022/04/28 00:46:16;;;;;;;7.03;5.20;;;8.00;99.90;;;;;;5051677;28;20438;-73
2022/04/28 00:52:07;;;;;;;5.37;4.73;;;8.00;99.90;;;;;;5052458;28;20880;-73
2022/04/28 00:54:54;;;;;;;5.30;4.77;;;8.10;99.90;;;;;;5047858;28;20425;-73
2022/04/28 00:57:40;;;;;;;8.23;4.63;;;8.10;99.90;;;;;;5053279;28;20523;-72
2022/04/28 01:00:27;;;;;;;6.27;4.80;;;8.00;99.90;;;;;;5045604;28;20450;-73
2022/04/28 01:03:13;;;;;;;4.90;4.27;;;8.10;99.90;;;;;;5046258;28;20418;-73
2022/04/28 01:06:01;;;;;;;7.20;4.73;;;8.00;99.90;;;;;;5047972;28;20469;-72
2022/04/28 01:08:47;;;;;;;5.57;5.00;;;8.10;99.90;;;;;;5045124;28;20437;-72
2022/04/28 01:11:33;;;;;;;7.63;4.90;;;8.00;99.90;;;;;;5042798;28;20456;-73
2022/04/28 01:14:19;;;;;;;6.87;5.30;;;8.00;99.90;;;;;;5036270;28;20419;-73
2022/04/28 01:17:05;;;;;;;8.37;4.93;;;8.00;99.90;;;;;;5051436;28;20446;-73
2022/04/28 01:19:50;;;;;;;5.03;4.53;;;8.10;99.90;;;;;;5043066;28;20411;-73
2022/04/28 01:22:38;;;;;;;5.07;4.57;;;8.30;99.90;;;;;;5044857;28;20446;-72
2022/04/28 01:25:23;;;;;;;7.03;4.90;;;8.10;99.90;;;;;;5045241;28;20911;-72
2022/04/28 01:28:09;;;;;;;7.93;4.40;;;8.00;99.90;;;;;;5048735;28;21642;-72
2022/04/28 01:30:55;;;;;;;5.37;4.50;;;7.90;99.90;;;;;;5044268;28;20825;-73
2022/04/28 01:33:41;;;;;;;6.00;4.90;;;7.70;99.90;;;;;;5041042;28;20416;-73
2022/04/28 01:36:27;;;;;;;6.93;4.97;;;7.70;99.90;;;;;;5042588;28;20441;-73
2022/04/28 01:39:15;;;;;;;12.90;6.20;;;7.60;99.90;;;;;;5050407;28;20947;-73
2022/04/28 01:42:00;;;;;;;6.13;5.47;;;7.50;99.90;;;;;;5046742;28;20792;-73
2022/04/28 01:44:46;;;;;;;6.67;5.53;;;7.50;99.90;;;;;;5049185;28;20492;-72
2022/04/28 01:47:33;;;;;;;7.43;5.50;;;7.50;99.90;;;;;;5047068;28;20414;-73
2022/04/28 01:50:18;;;;;;;7.40;5.00;;;7.50;99.90;;;;;;5049072;28;21067;-73
2022/04/28 01:56:09;;;;;;;7.17;5.40;;;7.30;99.90;;;;;;5048728;28;20515;-73
2022/04/28 01:58:54;;;;;;;7.07;4.73;;;7.10;99.90;;;;;;5048217;28;20814;-72
2022/04/28 02:01:40;;;;;;;7.07;5.33;;;7.20;99.90;;;;;;5047560;28;20820;-73
2022/04/28 02:04:25;;;;;;;10.83;6.10;;;7.10;99.90;;;;;;5047987;28;20448;-73
2022/04/28 02:07:11;;;;;;;7.30;5.90;;;7.10;99.90;;;;;;5046256;28;20439;-72
2022/04/28 02:09:58;;;;;;;6.00;5.40;;;7.20;99.90;;;;;;5038097;28;20458;-72
2022/04/28 02:12:45;;;;;;;6.97;4.87;;;7.20;99.90;;;;;;5044614;28;20502;-73
2022/04/28 02:15:32;;;;;;;8.00;5.37;;;7.20;99.90;;;;;;5045167;28;20458;-73
2022/04/28 02:18:17;;;;;;;10.33;6.50;;;7.30;99.90;;;;;;5048216;28;20453;-73
2022/04/28 02:21:03;;;;;;;9.43;5.90;;;7.30;99.90;;;;;;5042357;28;20447;-73
2022/04/28 02:23:48;;;;;;;6.10;5.20;;;7.20;99.90;;;;;;5045169;28;20925;-73
2022/04/28 02:26:34;;;;;;;10.60;6.30;;;7.20;99.90;;;;;;5045930;28;20551;-72
2022/04/28 02:29:22;;;;;;;7.67;5.87;;;7.20;99.90;;;;;;5045259;28;20453;-73
2022/04/28 02:32:08;;;;;;;8.50;5.67;;;7.40;99.90;;;;;;5043400;28;20437;-73
2022/04/28 02:34:54;;;;;;;8.80;6.03;;;7.30;99.90;;;;;;5047999;28;20440;-72
2022/04/28 02:37:40;;;;;;;6.33;5.60;;;7.20;99.90;;;;;;5044438;28;20425;-73
2022/04/28 02:40:25;;;;;;;9.50;6.77;;;7.20;99.90;;;;;;5045845;28;20442;-73
2022/04/28 02:43:11;;;;;;;7.27;6.40;;;7.10;99.90;;;;;;5040971;28;20426;-72
2022/04/28 02:45:59;;;;;;;7.10;5.90;;;7.10;99.90;;;;;;5047122;28;20554;-73
2022/04/28 02:48:45;;;;;;;7.73;6.07;;;7.00;99.90;;;;;;5046982;28;20444;-72
2022/04/28 02:51:31;;;;;;;5.20;4.70;;;7.10;99.90;;;;;;5044364;28;21053;-72
2022/04/28 02:54:16;;;;;;;6.67;5.37;;;7.10;99.90;;;;;;5050095;28;20517;-72
2022/04/28 02:57:02;;;;;;;6.90;6.03;;;7.00;99.90;;;;;;5040539;28;20782;-72
2022/04/28 02:59:47;;;;;;;9.80;5.60;;;7.10;99.90;;;;;;5044826;28;20470;-73
2022/04/28 03:02:35;;;;;;;5.90;5.30;;;7.10;99.90;;;;;;5042331;28;20477;-72
2022/04/28 03:05:21;;;;;;;6.27;5.40;;;7.10;99.90;;;;;;5049350;28;20507;-72
2022/04/28 03:11:10;;;;;;;6.40;5.80;;;7.10;99.90;;;;;;5043070;28;20422;-73
2022/04/28 03:13:57;;;;;;;10.80;5.50;;;7.10;99.90;;;;;;5043086;28;21195;-73
2022/04/28 03:16:43;;;;;;;7.40;6.10;;;7.00;99.90;;;;;;5044782;28;20407;-73
2022/04/28 03:19:30;;;;;;;7.40;6.00;;;7.00;99.90;;;;;;5048569;28;20491;-73
2022/04/28 03:22:16;;;;;;;6.00;5.40;;;6.90;99.90;;;;;;5042508;28;20455;-73
2022/04/28 03:25:02;;;;;;;6.40;5.70;;;6.90;99.90;;;;;;5042304;28;20430;-73
2022/04/28 03:27:47;;;;;;;7.73;5.90;;;7.00;99.90;;;;;;5047927;28;20440;-72
2022/04/28 03:30:33;;;;;;;6.43;5.60;;;7.00;99.90;;;;;;5045833;28;20506;-73
2022/04/28 03:33:19;;;;;;;6.10;5.50;;;7.00;99.90;;;;;;5041882;28;20849;-72
2022/04/28 03:36:50;;;;;;;6.47;5.33;;;6.90;99.90;;;;;;5047171;28;20460;-72
2022/04/28 03:39:12;;;;;;;6.03;5.43;;;6.70;99.90;;;;;;5044062;28;20422;-73
2022/04/28 03:41:59;;;;;;;7.10;5.77;;;6.80;99.90;;;;;;5039277;28;20469;-72
2022/04/28 03:44:44;;;;;;;9.80;5.80;;;6.60;99.90;;;;;;5044333;28;20522;-73
2022/04/28 03:47:33;;;;;;;7.60;6.20;;;6.80;99.90;;;;;;5040407;28;20669;-73
2022/04/28 03:50:18;;;;;;;6.13;4.77;;;6.70;99.90;;;;;;5051780;28;20470;-73
2022/04/28 03:53:07;;;;;;;9.07;5.87;;;6.70;99.90;;;;;;5051303;28;20429;-72
2022/04/28 03:55:54;;;;;;;6.33;5.27;;;6.80;99.90;;;;;;5041931;28;20423;-73
2022/04/28 03:58:39;;;;;;;6.30;5.10;;;6.90;99.90;;;;;;5051545;28;21015;-73
2022/04/28 04:01:25;;;;;;;6.90;4.80;;;6.80;99.90;;;;;;5042400;28;20462;-73
2022/04/28 04:04:10;;;;;;;7.50;5.20;;;6.80;99.90;;;;;;5045119;28;20453;-72
2022/04/28 04:06:56;;;;;;;6.93;5.80;;;6.70;99.90;;;;;;5050155;28;20428;-73
2022/04/28 04:09:43;;;;;;;8.77;5.77;;;6.80;99.90;;;;;;5044724;28;20424;-73
2022/04/28 04:12:29;;;;;;;7.07;5.03;;;6.80;99.90;;;;;;5048658;28;20429;-73
2022/04/28 04:15:14;;;;;;;6.87;5.27;;;6.70;99.90;;;;;;5042213;28;20425;-73
2022/04/28 04:18:00;;;;;;;6.60;5.90;;;6.60;99.90;;;;;;5049366;28;20451;-72
2022/04/28 04:20:46;;;;;;;5.70;4.77;;;6.50;99.90;;;;;;5047222;28;20427;-73
2022/04/28 04:23:32;;;;;;;8.30;5.07;;;6.60;99.90;;;;;;5049609;28;20465;-73
2022/04/28 04:26:19;;;;;;;6.00;5.10;;;6.50;99.90;;;;;;5050133;28;20492;-73
2022/04/28 04:29:04;;;;;;;6.83;6.00;;;6.50;99.90;;;;;;5046215;28;20426;-73
2022/04/28 04:34:55;;;;;;;8.20;6.17;;;6.40;99.90;;;;;;5047328;28;20930;-73
2022/04/28 04:37:41;;;;;;;6.50;5.73;;;6.40;99.90;;;;;;5044539;28;20447;-73
2022/04/28 04:40:27;;;;;;;6.63;5.47;;;6.40;99.90;;;;;;5045051;28;20600;-73
2022/04/28 04:43:14;;;;;;;8.23;5.70;;;6.50;99.90;;;;;;5047810;28;20439;-73
2022/04/28 04:46:00;;;;;;;7.23;5.57;;;6.50;99.90;;;;;;5047418;28;20423;-73
2022/04/28 04:48:46;;;;;;;7.63;5.67;;;6.50;99.90;;;;;;5051745;28;20477;-73
2022/04/28 04:51:31;;;;;;;7.90;6.30;;;6.60;99.90;;;;;;5047500;28;20454;-73
2022/04/28 04:54:17;;;;;;;5.20;4.70;;;6.70;99.90;;;;;;5050524;28;20419;-72
2022/04/28 04:57:03;;;;;;;11.40;5.47;;;6.90;99.90;;;;;;5046661;28;20568;-72
2022/04/28 04:59:50;;;;;;;6.57;5.60;;;7.00;99.90;;;;;;5047614;28;20432;-72
2022/04/28 05:02:36;;;;;;;7.80;5.90;;;7.00;99.90;;;;;;5045570;28;20820;-72
2022/04/28 05:05:21;;;;;;;6.80;6.00;;;7.00;99.90;;;;;;5078921;22;20576;-71
2022/04/28 05:08:07;;;;;;;7.70;6.53;;;7.10;99.90;;;;;;5086705;28;20446;-73
2022/04/28 05:10:52;;;;;;;6.17;5.57;;;7.20;99.90;;;;;;5082186;28;20939;-71
2022/04/28 05:13:38;;;;;;;5.93;5.27;;;7.30;99.90;;;;;;5090013;28;20799;-73
2022/04/28 05:16:24;;;;;;;14.83;5.30;;;7.30;99.90;;;;;;5099629;28;20530;-72
2022/04/28 05:19:10;;;;;;;7.33;5.53;;;7.40;99.90;;;;;;5106128;28;20870;-72
2022/04/28 05:21:56;;;;;;;6.00;5.33;;;7.60;99.90;;;;;;5105132;28;20833;-71
2022/04/28 05:24:42;;;;;;;8.67;6.30;;;7.70;99.90;;;;;;5108125;28;20567;-71
2022/04/28 05:27:27;;;;;;;14.43;6.10;;;7.70;99.90;;;;;;5103966;28;20643;-72
2022/04/28 05:30:13;;;;;;;8.90;6.10;;;7.90;99.90;;;;;;5102584;28;20426;-75
2022/04/28 05:33:00;;;;;;;7.23;5.67;;;8.10;99.90;;;;;;5100680;28;20418;-71
2022/04/28 05:35:46;;;;;;;5.97;5.37;;;8.20;99.90;;;;;;5105055;28;20594;-71
2022/04/28 05:38:32;;;;;;;5.43;4.63;;;8.40;99.90;;;;;;5107058;28;20939;-71
2022/04/28 05:41:19;;;;;;;8.93;5.43;;;8.50;99.90;;;;;;5104428;28;20553;-71
2022/04/28 05:47:08;;;;;;;5.87;5.27;;;8.80;99.90;;;;;;5107901;28;20487;-71
2022/04/28 05:49:56;;;;;;;10.23;6.17;;;9.00;99.90;;;;;;5103744;28;20802;-71
2022/04/28 05:52:41;;;;;;;6.60;5.40;;;9.00;99.90;;;;;;5105709;28;20552;-71
2022/04/28 05:55:27;;;;;;;8.50;5.57;;;9.20;99.90;;;;;;5106061;28;20459;-72
2022/04/28 05:58:13;;;;;;;7.20;6.50;;;9.30;99.90;;;;;;5109485;28;20438;-72
2022/04/28 06:00:58;;;;;;;7.37;6.57;;;9.40;99.90;;;;;;5104917;28;20484;-72
2022/04/28 06:03:44;;;;;;;10.67;6.23;;;9.60;99.90;;;;;;5109611;28;20888;-71
2022/04/28 06:06:31;;;;;;;8.27;6.80;;;9.70;99.90;;;;;;5105311;28;20453;-71
2022/04/28 06:09:16;;;;;;;7.57;6.47;;;9.80;99.90;;;;;;5102000;28;20866;-73
2022/04/28 06:12:02;;;;;;;11.13;6.20;;;9.90;99.90;;;;;;5109297;28;20498;-72
2022/04/28 06:14:49;;;;;;;6.97;5.83;;;10.10;99.90;;;;;;5103840;28;20530;-71
2022/04/28 06:17:34;;;;;;;8.07;6.27;;;10.10;99.90;;;;;;5105802;28;20434;-76
2022/04/28 06:20:20;;;;;;;8.77;6.60;;;10.10;99.90;;;;;;5101982;28;20449;-72
2022/04/28 06:23:07;;;;;;;7.80;6.30;;;10.20;99.90;;;;;;5106776;28;20503;-71
2022/04/28 06:25:53;;;;;;;7.33;6.40;;;10.40;99.90;;;;;;5107391;28;20435;-71
2022/04/28 06:28:39;;;;;;;8.10;7.30;;;10.60;99.90;;;;;;5103336;28;20581;-73
2022/04/28 06:31:24;;;;;;;9.47;7.37;;;10.70;99.90;;;;;;5107017;28;20960;-71
2022/04/28 06:34:10;;;;;;;7.70;6.27;;;10.80;99.90;;;;;;5109465;28;20447;-71
2022/04/28 06:36:56;;;;;;;11.60;6.77;;;10.90;99.90;;;;;;5107001;28;20487;-72
2022/04/28 06:39:43;;;;;;;9.40;6.00;;;11.10;99.90;;;;;;5103192;28;20606;-73
2022/04/28 06:42:29;;;;;;;8.33;7.47;;;11.30;99.90;;;;;;5109390;28;20940;-71
2022/04/28 06:45:14;;;;;;;8.23;7.33;;;11.40;99.90;;;;;;5107258;28;20836;-73
2022/04/28 06:48:01;;;;;;;8.73;6.23;;;11.50;99.90;;;;;;5106967;28;20439;-75
2022/04/28 06:50:47;;;;;;;8.37;7.00;;;11.60;99.90;;;;;;5105176;28;20913;-71
2022/04/28 06:53:32;;;;;;;11.00;6.27;;;11.70;99.90;;;;;;5108002;28;20433;-72
2022/04/28 06:56:19;;;;;;;7.97;6.70;;;11.90;99.90;;;;;;5104982;28;21214;-71
2022/04/28 06:59:06;;;;;;;6.80;5.77;;;12.00;99.90;;;;;;5102671;28;20463;-74
2022/04/28 07:01:51;;;;;;;9.03;6.30;;;12.10;99.90;;;;;;5100257;28;20525;-73
2022/04/28 07:04:37;;;;;;;7.67;6.43;;;12.20;99.90;;;;;;5094955;28;20496;-72
2022/04/28 07:07:23;;;;;;;10.57;7.37;;;12.40;99.90;;;;;;5099023;28;20408;-74
2022/04/28 07:10:09;;;;;;;8.80;6.57;;;12.40;99.90;;;;;;5102773;28;20434;-72
2022/04/28 07:12:57;;;;;;;9.40;7.10;;;12.60;99.90;;;;;;5099416;28;20469;-71
2022/04/28 07:15:42;;;;;;;9.43;6.70;;;12.70;99.90;;;;;;5100117;28;20434;-75
2022/04/28 07:18:28;;;;;;;9.50;6.97;;;12.80;99.90;;;;;;5094926;28;20442;-76
2022/04/28 07:21:14;;;;;;;9.03;6.80;;;12.90;99.90;;;;;;5107112;28;20490;-70
2022/04/28 07:23:59;;;;;;;7.77;6.83;;;13.00;99.90;;;;;;5100444;28;20443;-71
2022/04/28 07:26:45;;;;;;;8.83;7.00;;;13.20;99.90;;;;;;5103459;28;20502;-72
2022/04/28 07:29:32;;;;;;;6.73;6.00;;;13.30;99.90;;;;;;5099090;28;20449;-72
2022/04/28 07:32:18;;;;;;;10.20;7.30;;;13.50;99.90;;;;;;5100511;28;20445;-71
2022/04/28 07:35:03;;;;;;;13.33;6.20;;;13.60;99.90;;;;;;5108828;28;20416;-74
2022/04/28 07:37:49;;;;;;;6.57;5.50;;;13.80;99.90;;;;;;5097405;28;20415;-74
2022/04/28 07:40:36;;;;;;;6.40;5.30;;;13.90;99.90;;;;;;5105210;28;20464;-71
2022/04/28 07:43:22;;;;;;;7.27;5.23;;;14.00;99.50;;;;;;5102939;28;20478;-72
2022/04/28 07:46:10;;;;;;;8.83;5.20;;;14.10;99.00;;;;;;5098959;28;20775;-72
2022/04/28 07:48:55;;;;;;;5.67;4.83;;;14.30;95.20;;;;;;5104926;28;20449;-72
2022/04/28 07:51:42;;;;;;;6.97;4.50;;;14.40;92.00;;;;;;5104968;28;20395;-71
2022/04/28 07:54:27;;;;;;;10.40;5.57;;;14.60;91.90;;;;;;5102502;28;20451;-71
2022/04/28 07:57:13;;;;;;;6.20;4.73;;;14.70;90.80;;;;;;5105079;28;20489;-71
2022/04/28 07:59:58;;;;;;;5.73;4.67;;;14.90;88.70;;;;;;5104012;28;20414;-71
2022/04/28 08:02:45;;;;;;;6.47;4.37;;;15.00;89.70;;;;;;5099938;28;20595;-70
2022/04/28 08:05:31;;;;;;;5.80;4.40;;;15.10;89.30;;;;;;5102855;28;20439;-71
2022/04/28 08:08:17;;;;;;;7.40;4.27;;;15.20;84.30;;;;;;5103015;28;20427;-71
2022/04/28 08:11:03;;;;;;;4.93;4.03;;;15.20;79.00;;;;;;5101685;28;20446;-72
2022/04/28 08:13:49;;;;;;;4.93;4.43;;;15.30;76.70;;;;;;5103186;28;20980;-71
2022/04/28 08:16:35;;;;;;;5.47;4.30;;;15.50;70.90;;;;;;5101304;28;20413;-71
2022/04/28 08:19:22;;;;;;;10.37;3.97;;;15.60;67.30;;;;;;5100452;28;20468;-71
2022/04/28 08:22:08;;;;;;;6.10;4.33;;;15.60;62.10;;;;;;5096663;28;20497;-70
2022/04/28 08:24:54;;;;;;;4.63;4.07;;;15.80;64.60;;;;;;5101942;28;20570;-71
2022/04/28 08:27:39;;;;;;;4.97;4.10;;;15.90;62.70;;;;;;5102467;28;20506;-71
2022/04/28 08:30:25;;;;;;;6.37;4.27;;;16.00;60.50;;;;;;5096645;28;21028;-71
2022/04/28 08:33:11;;;;;;;4.93;4.03;;;16.10;61.70;;;;;;5104115;28;20415;-72
2022/04/28 08:35:58;;;;;;;4.90;3.70;;;16.30;61.90;;;;;;5106851;28;20487;-71
2022/04/28 08:38:44;;;;;;;4.70;3.20;;;16.40;57.10;;;;;;5105160;28;20924;-72
2022/04/28 08:41:33;;;;;;;5.10;3.00;;;16.50;49.60;;;;;;5109642;28;20425;-73
2022/04/28 08:44:20;;;;;;;5.83;3.13;;;16.70;52.80;;;;;;5112884;28;20427;-71
2022/04/28 08:47:06;;;;;;;4.70;3.40;;;16.90;48.20;;;;;;5098838;28;20936;-71
2022/04/28 08:49:52;;;;;;;4.70;3.27;;;17.00;42.00;;;;;;5111776;28;20444;-72
2022/04/28 08:52:40;;;;;;;7.57;4.27;;;17.10;47.60;;;;;;5103129;28;20419;-71
2022/04/28 08:55:26;;;;;;;4.17;3.60;;;17.10;42.70;;;;;;5103276;28;20963;-71
2022/04/28 08:58:12;;;;;;;4.63;3.33;;;17.10;42.90;;;;;;5100512;28;20481;-73
2022/04/28 09:00:57;;;;;;;4.10;3.33;;;17.20;41.70;;;;;;5104601;28;20621;-71
2022/04/28 09:03:44;;;;;;;3.77;2.73;;;17.20;37.60;;;;;;5105496;28;20481;-73
2022/04/28 09:06:34;;;;;;;4.70;2.77;;;17.20;40.50;;;;;;5097363;28;20424;-72
2022/04/28 09:09:22;;;;;;;4.93;3.27;;;17.30;40.80;;;;;;5101034;28;20978;-72
2022/04/28 09:12:10;;;;;;;6.07;3.40;;;17.50;39.00;;;;;;5109163;28;20468;-72
2022/04/28 09:15:11;;;;;;;3.80;2.40;;;17.60;37.30;;;;;;5102385;28;20995;-72
2022/04/28 09:17:58;;;;;;;4.50;3.13;;;17.70;37.10;;;;;;5102420;28;20427;-73
2022/04/28 09:20:45;;;;;;;5.40;2.63;;;17.80;37.20;;;;;;5112922;28;20425;-72
2022/04/28 09:23:36;;;;;;;5.60;3.40;;;17.90;37.30;;;;;;5103469;28;20770;-72
2022/04/28 09:26:25;;;;;;;4.90;2.50;;;18.00;35.30;;;;;;5106253;28;20814;-72
2022/04/28 09:29:17;;;;;;;5.77;3.10;;;18.10;35.70;;;;;;5106833;28;20429;-73
2022/04/28 09:32:03;;;;;;;4.60;2.50;;;18.20;35.50;;;;;;5102709;28;20413;-72
2022/04/28 09:34:53;;;;;;;4.43;3.20;;;18.30;36.10;;;;;;5101325;28;20474;-74
2022/04/28 09:37:39;;;;;;;5.87;2.50;;;18.40;30.80;;;;;;5107513;28;21006;-72
2022/04/28 09:43:32;;;;;;;3.67;2.83;;;18.40;33.50;;;;;;5102601;28;20447;-73
2022/04/28 09:46:25;;;;;;;3.77;2.50;;;18.40;33.00;;;;;;5105297;28;20503;-73
2022/04/28 09:49:13;;;;;;;3.43;2.80;;;18.50;32.50;;;;;;5106765;28;20395;-72
2022/04/28 09:52:00;;;;;;;3.73;2.70;;;18.60;31.70;;;;;;5113000;28;20420;-72
2022/04/28 09:54:47;;;;;;;4.63;3.07;;;18.70;32.40;;;;;;5103330;28;20974;-74
2022/04/28 09:57:34;;;;;;;5.77;3.70;;;18.70;32.90;;;;;;5105647;28;20444;-73
2022/04/28 10:00:22;;;;;;;6.90;2.70;;;18.80;28.90;;;;;;5102875;28;20921;-73
2022/04/28 10:03:11;;;;;;;3.63;3.17;;;18.80;29.70;;;;;;5107395;28;20442;-72
2022/04/28 10:05:58;;;;;;;3.57;2.30;;;18.90;31.40;;;;;;5103701;28;20535;-72
2022/04/28 10:08:46;;;;;;;4.50;2.90;;;18.90;31.00;;;;;;5097237;28;20430;-73
2022/04/28 10:11:33;;;;;;;4.07;2.80;;;19.00;31.20;;;;;;5101974;28;20990;-72
2022/04/28 10:14:23;;;;;;;2.77;2.40;;;19.10;32.20;;;;;;5082119;28;20456;-73
2022/04/28 10:17:15;;;;;;;5.40;2.70;;;19.30;30.50;;;;;;5085063;28;20433;-74
2022/04/28 10:20:06;;;;;;;4.10;2.53;;;19.40;31.10;;;;;;5079820;28;20834;-73
2022/04/28 10:22:54;;;;;;;7.77;2.83;;;19.50;30.80;;;;;;5082935;28;20446;-72
2022/04/28 10:35:07;;;;;;;3.97;2.80;;;19.80;29.90;;;;;;5081415;28;20871;-72
2022/04/28 10:37:53;;;;;;;4.40;2.50;;;19.90;28.80;;;;;;5081246;28;20416;-74
2022/04/28 10:40:41;;;;;;;4.90;3.00;;;20.00;27.70;;;;;;5083292;28;20424;-76
2022/04/28 10:43:28;;;;;;;3.50;2.63;;;20.10;29.30;;;;;;5087706;28;20506;-72
2022/04/28 10:46:33;;;;;;;4.40;2.73;;;20.20;29.90;;;;;;5083020;28;20922;-73
2022/04/28 10:49:25;;;;;;;5.63;3.00;;;20.30;28.70;;;;;;5080298;28;20476;-72
2022/04/28 10:52:27;;;;;;;3.10;2.20;;;20.40;29.20;;;;;;5080258;28;20439;-73
2022/04/28 10:55:15;;;;;;;3.83;2.47;;;20.40;26.70;;;;;;5081529;28;20466;-73
2022/04/28 10:58:19;;;;;;;3.03;2.33;;;20.50;26.80;;;;;;5080647;28;20446;-73
2022/04/28 11:01:06;;;;;;;5.17;2.10;;;20.60;28.90;;;;;;5087206;28;20590;-72
2022/04/28 11:03:54;;;;;;;4.87;2.33;;;20.60;28.70;;;;;;5080322;28;20464;-73
2022/04/28 11:06:51;;;;;;;4.80;2.60;;;20.70;27.00;;;;;;5060708;22;20542;-74
2022/04/28 11:09:39;;;;;;;5.30;2.77;;;20.80;25.10;;;;;;5041414;28;20448;-74
2022/04/28 11:12:33;;;;;;;3.80;2.13;;;20.80;27.10;;;;;;5033478;28;20423;-74
2022/04/28 11:15:19;;;;;;;6.23;3.10;;;20.90;28.80;;;;;;5023873;28;20569;-74
2022/04/28 11:18:05;;;;;;;6.80;2.80;;;20.60;24.10;;;;;;5022918;28;20473;-74
2022/04/28 11:20:51;;;;;;;4.20;2.60;;;20.40;26.70;;;;;;5033339;28;20459;-73
2022/04/28 11:23:40;;;;;;;6.70;3.67;;;20.50;28.40;;;;;;5031130;28;20512;-74
2022/04/28 11:26:28;;;;;;;5.50;2.57;;;20.60;26.90;;;;;;5030549;28;20842;-74
2022/04/28 11:29:15;;;;;;;5.60;2.43;;;20.70;27.00;;;;;;5040009;28;20922;-74
2022/04/28 11:32:01;;;;;;;4.73;2.27;;;20.90;27.20;;;;;;5028763;28;20869;-74
2022/04/28 11:34:48;;;;;;;4.90;2.37;;;20.90;26.50;;;;;;5026073;28;20440;-74
2022/04/28 11:37:39;;;;;;;3.97;2.30;;;21.00;27.60;;;;;;5033863;28;20459;-73
2022/04/28 11:40:25;;;;;;;3.30;2.10;;;21.20;27.20;;;;;;5033048;28;21111;-74
2022/04/28 11:43:12;;;;;;;4.70;2.53;;;21.20;26.80;;;;;;5028898;28;20463;-73
2022/04/28 11:45:59;;;;;;;3.50;2.47;;;21.30;27.50;;;;;;5032093;28;20604;-73
2022/04/28 11:48:44;;;;;;;3.83;2.67;;;21.50;27.60;;;;;;5036890;28;20443;-73
2022/04/28 11:51:33;;;;;;;4.50;2.63;;;21.60;27.60;;;;;;5032949;28;20832;-73
2022/04/28 11:54:21;;;;;;;10.67;2.77;;;21.70;27.50;;;;;;5028708;28;20425;-72
2022/04/28 11:57:12;;;;;;;5.40;2.23;;;21.80;25.40;;;;;;5030507;28;20427;-72
2022/04/28 12:00:00;;;;;;;4.00;2.23;;;21.90;26.20;;;;;;5032064;28;20463;-72
2022/04/28 12:02:46;;;;;;;8.10;2.43;;;21.90;25.70;;;;;;5030277;28;20981;-72
2022/04/28 12:05:34;;;;;;;4.27;2.50;;;21.90;25.10;;;;;;5035500;28;20999;-72
2022/04/28 12:08:22;;;;;;;3.50;2.67;;;21.90;26.70;;;;;;5045184;28;20456;-72
2022/04/28 12:14:24;;;;;;;2.47;1.93;;;22.10;25.30;;;;;;5029663;28;20498;-72
2022/04/28 12:20:14;;;;;;;5.20;2.47;;;22.10;23.90;;;;;;5034885;28;21007;-73
2022/04/28 12:23:00;;;;;;;4.40;2.57;;;22.10;24.30;;;;;;5027178;28;20580;-72
2022/04/28 12:25:45;;;;;;;3.50;2.33;;;22.20;25.70;;;;;;5024920;28;20874;-72
2022/04/28 12:28:32;;;;;;;5.63;2.60;;;22.30;26.10;;;;;;5032481;28;20502;-71
2022/04/28 12:31:27;;;;;;;4.53;2.30;;;22.40;24.90;;;;;;5045288;28;20436;-71
2022/04/28 12:34:19;;;;;;;6.97;2.50;;;22.60;24.40;;;;;;5028767;28;20449;-71
2022/04/28 12:37:05;;;;;;;4.53;2.60;;;22.70;23.20;;;;;;5034867;28;20530;-71
2022/04/28 12:39:58;;;;;;;4.43;2.43;;;22.80;23.30;;;;;;5035993;28;20447;-72
2022/04/28 12:42:46;;;;;;;4.30;2.40;;;22.80;24.10;;;;;;5043013;28;20460;-71
2022/04/28 12:45:37;;;;;;;4.73;2.27;;;22.90;24.40;;;;;;5027157;28;20481;-72
2022/04/28 12:48:27;;;;;;;3.53;2.37;;;22.80;24.40;;;;;;5031626;28;20429;-72
2022/04/28 12:51:20;;;;;;;3.47;2.40;;;22.90;24.10;;;;;;5032894;28;20477;-71
2022/04/28 12:54:10;;;;;;;3.87;2.37;;;23.10;26.40;;;;;;5031142;28;20441;-71
2022/04/28 12:56:58;;;;;;;5.13;2.20;;;23.30;26.50;;;;;;5034000;28;20421;-71
2022/04/28 12:59:44;;;;;;;5.60;3.00;;;23.40;25.20;;;;;;5035921;28;20428;-72
2022/04/28 13:02:30;;;;;;;3.90;2.40;;;23.40;23.20;;;;;;5027885;28;20452;-72
2022/04/28 13:05:18;;;;;;;5.33;2.40;;;23.50;22.90;;;;;;5033462;28;20476;-72
2022/04/28 13:08:07;;;;;;;4.27;2.20;;;23.40;23.10;;;;;;5027375;28;20584;-71
2022/04/28 13:10:53;;;;;;;3.63;2.80;;;23.30;23.40;;;;;;5031834;28;20468;-72
2022/04/28 13:13:39;;;;;;;2.73;1.90;;;23.30;23.70;;;;;;5036509;28;20439;-71
2022/04/28 13:16:25;;;;;;;6.17;2.00;;;23.50;24.40;;;;;;5024895;28;20455;-71
2022/04/28 13:19:12;;;;;;;5.70;2.30;;;23.70;24.80;;;;;;5032796;28;20507;-72
2022/04/28 13:21:57;;;;;;;5.07;2.53;;;23.70;22.90;;;;;;5024552;28;20423;-72
2022/04/28 13:24:44;;;;;;;2.40;1.77;;;23.90;21.10;;;;;;5031549;28;20468;-72
2022/04/28 13:27:30;;;;;;;2.87;2.07;;;24.10;23.00;;;;;;5033257;28;20810;-72
2022/04/28 13:30:16;;;;;;;6.43;2.77;;;24.40;22.30;;;;;;5034403;28;20519;-71
2022/04/28 13:33:02;;;;;;;6.33;2.37;;;24.50;22.70;;;;;;5027307;28;20526;-70
2022/04/28 13:35:48;;;;;;;6.50;2.53;;;24.50;21.00;;;;;;5032437;28;20583;-71
2022/04/28 13:38:34;;;;;;;3.53;2.03;;;24.40;22.00;;;;;;5029587;28;20434;-71
2022/04/28 13:41:21;;;;;;;4.43;2.20;;;24.40;22.60;;;;;;5025968;28;20461;-71
2022/04/28 13:44:07;;;;;;;3.83;2.20;;;24.40;23.40;;;;;;5031876;28;20464;-71
2022/04/28 13:46:53;;;;;;;4.27;2.17;;;24.40;22.30;;;;;;5030315;28;20416;-70
2022/04/28 13:49:39;;;;;;;7.50;2.60;;;24.50;19.60;;;;;;5032757;28;20518;-71
2022/04/28 13:52:24;;;;;;;4.97;2.40;;;24.60;20.60;;;;;;5024524;28;20448;-71
2022/04/28 13:55:10;;;;;;;3.17;2.13;;;24.60;21.70;;;;;;5029672;28;20456;-71
2022/04/28 13:57:57;;;;;;;5.00;2.23;;;24.50;19.90;;;;;;5050003;28;20526;-70
2022/04/28 14:00:45;;;;;;;7.67;2.60;;;24.50;22.30;;;;;;5035485;28;20510;-70
2022/04/28 14:03:32;;;;;;;3.77;2.37;;;24.40;22.20;;;;;;5020724;28;20457;-71
2022/04/28 14:06:18;;;;;;;3.60;2.27;;;24.60;23.10;;;;;;5037966;28;20451;-70
2022/04/28 14:09:04;;;;;;;3.90;2.30;;;24.80;21.10;;;;;;5025913;28;20456;-71
2022/04/28 14:11:51;;;;;;;3.90;2.20;;;24.80;21.70;;;;;;5032878;28;20475;-71
2022/04/28 14:14:37;;;;;;;5.90;2.77;;;24.70;22.40;;;;;;5032000;28;20425;-71
2022/04/28 14:17:23;;;;;;;5.73;2.37;;;24.60;20.70;;;;;;5030149;28;20499;-70
2022/04/28 14:20:11;;;;;;;3.10;2.33;;;24.50;21.90;;;;;;5026404;28;20451;-71
2022/04/28 14:22:56;;;;;;;3.60;2.10;;;24.50;21.80;;;;;;5028754;28;20441;-71
2022/04/28 14:25:42;;;;;;;5.00;2.10;;;24.40;18.60;;;;;;5030800;28;21016;-71
2022/04/28 14:28:28;;;;;;;6.00;2.90;;;24.40;21.30;;;;;;5028043;28;20444;-71
2022/04/28 14:31:15;;;;;;;3.93;2.67;;;24.60;22.20;;;;;;5023471;28;20453;-71
2022/04/28 14:34:01;;;;;;;4.17;2.57;;;24.70;22.40;;;;;;5036301;28;20464;-70
2022/04/28 14:36:47;;;;;;;6.90;2.33;;;24.40;21.50;;;;;;5033703;28;20468;-71
2022/04/28 14:39:34;;;;;;;3.50;2.33;;;24.40;22.30;;;;;;5028997;28;21051;-70
2022/04/28 14:42:22;;;;;;;5.33;2.80;;;24.20;22.50;;;;;;5024437;28;20930;-70
2022/04/28 14:45:09;;;;;;;3.40;2.50;;;24.30;21.80;;;;;;5031955;28;20479;-70
2022/04/28 14:47:55;;;;;;;3.50;2.10;;;24.40;22.10;;;;;;5034994;28;20500;-70
2022/04/28 14:53:45;;;;;;;6.23;2.60;;;24.30;21.50;;;;;;5030418;28;21029;-71
2022/04/28 14:56:30;;;;;;;6.40;2.50;;;24.10;23.20;;;;;;5032296;28;21007;-71
2022/04/28 14:59:16;;;;;;;4.13;2.30;;;24.10;22.90;;;;;;5029250;28;20815;-70
2022/04/28 15:02:01;;;;;;;2.90;2.30;;;23.70;21.90;;;;;;5022357;28;20819;-70
2022/04/28 15:04:49;;;;;;;3.50;2.53;;;23.70;23.80;;;;;;5032673;28;20471;-70
2022/04/28 15:07:35;;;;;;;3.77;2.40;;;23.70;22.80;;;;;;5029945;28;20468;-71
2022/04/28 15:10:21;;;;;;;5.97;2.97;;;23.70;23.80;;;;;;5031057;28;21065;-71